Time;durP1;ratioP1;P1;durP2;ratioP2;P2;SDS_P1;SDS_P2;PMS_P1;PMS_P2;Temp;Humidity;BMP_temperature;BMP_pressure;BME280_temperature;BME280_humidity;BME280_pressure;Samples;Min_cycle;Max_cycle;Signal;HPM_P1;HPM_P2
2022/07/21 00:00:37;;;;;;;;;;;;;;;24.89;41.75;98876.09;2106121;28;20051;-72
2022/07/21 00:01:38;;;;;;;;;;;;;;;24.94;41.58;98870.78;2103235;28;19927;-73
2022/07/21 00:02:39;;;;;;;;;;;;;;;24.85;41.91;98869.47;2105592;28;20348;-72
2022/07/21 00:03:40;;;;;;;;;;;;;;;24.83;42.01;98874.34;2106459;28;19930;-73
2022/07/21 00:04:42;;;;;;;;;;;;;;;24.84;41.91;98881.41;2108750;28;19934;-73
2022/07/21 00:05:42;;;;;;;;;;;;;;;24.83;41.85;98879.75;2108379;28;19928;-73
2022/07/21 00:06:44;;;;;;;;;;;;;;;24.79;41.61;98870.44;2106549;28;20111;-73
2022/07/21 00:07:45;;;;;;;;;;;;;;;24.73;41.62;98875.75;2098980;28;19927;-73
2022/07/21 00:08:47;;;;;;;;;;;;;;;24.82;42.13;98878.09;2098713;28;21705;-73
2022/07/21 00:09:47;;;;;;;;;;;;;;;24.83;42.31;98874.34;2104784;28;19928;-73
2022/07/21 00:10:49;;;;;;;;;;;;;;;24.87;42.32;98872.78;2103134;28;19954;-73
2022/07/21 00:11:50;;;;;;;;;;;;;;;24.87;42.41;98875.50;2107236;28;19924;-73
2022/07/21 00:12:51;;;;;;;;;;;;;;;24.88;42.66;98869.03;2109141;28;19934;-73
2022/07/21 00:13:52;;;;;;;;;;;;;;;24.91;42.64;98865.81;2106395;28;19928;-73
2022/07/21 00:14:55;;;;;;;;;;;;;;;24.89;42.30;98867.94;2105579;28;20019;-73
2022/07/21 00:15:55;;;;;;;;;;;;;;;24.84;42.04;98860.50;2105371;28;19931;-73
2022/07/21 00:16:59;;;;;;;;;;;;;;;24.87;42.38;98864.63;2102478;28;20462;-73
2022/07/21 00:18:00;;;;;;;;;;;;;;;24.92;42.55;98860.16;2102043;28;19984;-73
2022/07/21 00:19:01;;;;;;;;;;;;;;;24.88;42.94;98863.59;2103463;28;20012;-73
2022/07/21 00:20:03;;;;;;;;;;;;;;;24.86;42.66;98860.28;2104952;28;20005;-73
2022/07/21 00:21:05;;;;;;;;;;;;;;;24.86;42.72;98868.44;2105939;28;20049;-73
2022/07/21 00:22:05;;;;;;;;;;;;;;;24.88;42.54;98861.72;2105625;28;19924;-72
2022/07/21 00:23:07;;;;;;;;;;;;;;;24.89;42.34;98859.81;2109372;28;20258;-73
2022/07/21 00:24:07;;;;;;;;;;;;;;;24.88;42.24;98860.88;2096987;28;19928;-73
2022/07/21 00:25:10;;;;;;;;;;;;;;;24.87;42.48;98860.03;2104423;28;19974;-73
2022/07/21 00:26:11;;;;;;;;;;;;;;;24.82;42.87;98861.81;2105200;28;20011;-73
2022/07/21 00:27:12;;;;;;;;;;;;;;;24.87;42.94;98859.22;2107244;28;19939;-73
2022/07/21 00:28:13;;;;;;;;;;;;;;;24.86;42.95;98863.00;2106995;28;20241;-73
2022/07/21 00:29:14;;;;;;;;;;;;;;;24.88;43.28;98856.28;2105216;28;19962;-72
2022/07/21 00:30:16;;;;;;;;;;;;;;;24.87;42.88;98861.94;2105995;28;19924;-73
2022/07/21 00:31:18;;;;;;;;;;;;;;;24.85;42.73;98861.34;2108691;28;19924;-72
2022/07/21 00:32:18;;;;;;;;;;;;;;;24.86;42.57;98858.41;2100549;28;19939;-72
2022/07/21 00:33:20;;;;;;;;;;;;;;;24.88;42.73;98867.13;2108179;28;20018;-72
2022/07/21 00:34:20;;;;;;;;;;;;;;;24.83;42.88;98861.59;2100710;28;20026;-72
2022/07/21 00:35:22;;;;;;;;;;;;;;;24.74;43.06;98871.16;2108017;28;20993;-72
2022/07/21 00:36:23;;;;;;;;;;;;;;;24.73;43.06;98862.19;2105001;28;19924;-72
2022/07/21 00:37:24;;;;;;;;;;;;;;;24.77;43.22;98867.97;2103779;28;19969;-72
2022/07/21 00:38:25;;;;;;;;;;;;;;;24.80;43.60;98859.34;2106866;28;19993;-72
2022/07/21 00:39:27;;;;;;;;;;;;;;;24.86;43.30;98857.56;2103978;28;20005;-72
2022/07/21 00:40:27;;;;;;;;;;;;;;;24.85;43.06;98854.03;2104663;28;20003;-72
2022/07/21 00:41:29;;;;;;;;;;;;;;;24.89;43.13;98860.63;2106467;28;20429;-72
2022/07/21 00:42:30;;;;;;;;;;;;;;;24.79;43.28;98856.88;2107144;28;19947;-72
2022/07/21 00:43:32;;;;;;;;;;;;;;;24.68;43.67;98853.97;2104209;28;19924;-72
2022/07/21 00:44:32;;;;;;;;;;;;;;;24.71;43.26;98845.34;2109044;28;19935;-72
2022/07/21 00:45:35;;;;;;;;;;;;;;;24.73;43.00;98859.47;2103637;28;20202;-72
2022/07/21 00:46:36;;;;;;;;;;;;;;;24.75;42.84;98861.97;2104418;28;19931;-72
2022/07/21 00:47:38;;;;;;;;;;;;;;;24.73;42.75;98859.47;2106334;28;20272;-72
2022/07/21 00:48:38;;;;;;;;;;;;;;;24.74;42.96;98855.72;2106301;28;20297;-72
2022/07/21 00:49:41;;;;;;;;;;;;;;;24.77;42.53;98857.13;2104806;28;19930;-73
2022/07/21 00:50:41;;;;;;;;;;;;;;;24.69;42.75;98852.88;2107675;28;19927;-74
2022/07/21 00:51:43;;;;;;;;;;;;;;;24.66;43.47;98857.97;2104595;28;20019;-73
2022/07/21 00:52:44;;;;;;;;;;;;;;;24.68;43.38;98851.25;2104868;28;20000;-74
2022/07/21 00:53:45;;;;;;;;;;;;;;;24.74;43.62;98854.91;2104948;28;20151;-73
2022/07/21 00:54:46;;;;;;;;;;;;;;;24.81;43.22;98854.75;2105625;28;19985;-73
2022/07/21 00:55:47;;;;;;;;;;;;;;;24.74;43.40;98852.19;2104418;28;21347;-73
2022/07/21 00:56:48;;;;;;;;;;;;;;;24.75;43.25;98851.94;2105555;28;19959;-73
2022/07/21 00:57:50;;;;;;;;;;;;;;;24.72;43.33;98852.41;2107041;28;20015;-74
2022/07/21 00:58:50;;;;;;;;;;;;;;;24.70;43.33;98849.09;2106690;28;19927;-72
2022/07/21 00:59:52;;;;;;;;;;;;;;;24.70;43.07;98848.28;2107976;28;19955;-72
2022/07/21 01:00:54;;;;;;;;;;;;;;;24.68;43.41;98848.53;2108862;28;19923;-74
2022/07/21 01:01:55;;;;;;;;;;;;;;;24.63;43.78;98847.59;2104474;28;20257;-73
2022/07/21 01:02:57;;;;;;;;;;;;;;;24.66;43.60;98853.38;2106001;28;19924;-73
2022/07/21 01:03:58;;;;;;;;;;;;;;;24.71;43.43;98844.50;2105283;28;19931;-73
2022/07/21 01:04:59;;;;;;;;;;;;;;;24.71;43.30;98848.06;2108778;28;19931;-72
2022/07/21 01:06:00;;;;;;;;;;;;;;;24.78;43.02;98852.53;2104616;28;19932;-73
2022/07/21 01:07:02;;;;;;;;;;;;;;;24.69;43.27;98844.75;2105318;28;20061;-73
2022/07/21 01:08:04;;;;;;;;;;;;;;;24.69;43.53;98844.75;2103629;28;20042;-73
2022/07/21 01:09:04;;;;;;;;;;;;;;;24.71;43.51;98845.34;2105379;28;19924;-72
2022/07/21 01:10:06;;;;;;;;;;;;;;;24.68;43.22;98853.97;2100452;28;19924;-72
2022/07/21 01:11:08;;;;;;;;;;;;;;;24.64;43.24;98847.34;2104316;28;19948;-73
2022/07/21 01:12:09;;;;;;;;;;;;;;;24.67;43.69;98855.00;2106533;28;19927;-73
2022/07/21 01:13:10;;;;;;;;;;;;;;;24.71;43.67;98849.91;2105811;28;20015;-73
2022/07/21 01:14:11;;;;;;;;;;;;;;;24.69;43.56;98847.47;2103706;28;19924;-73
2022/07/21 01:15:14;;;;;;;;;;;;;;;24.64;43.41;98850.06;2104337;28;20035;-73
2022/07/21 01:16:16;;;;;;;;;;;;;;;24.66;43.42;98847.94;2102931;28;19931;-73
2022/07/21 01:17:18;;;;;;;;;;;;;;;24.64;43.38;98850.06;2102240;28;20099;-73
2022/07/21 01:18:19;;;;;;;;;;;;;;;24.67;43.28;98852.28;2104408;28;19932;-72
2022/07/21 01:19:21;;;;;;;;;;;;;;;24.61;43.17;98850.53;2107027;28;20030;-72
2022/07/21 01:20:22;;;;;;;;;;;;;;;24.68;42.96;98845.81;2103798;28;20010;-72
2022/07/21 01:21:30;;;;;;;;;;;;;;;24.67;43.31;98846.03;2104348;28;20286;-73
2022/07/21 01:22:31;;;;;;;;;;;;;;;24.63;43.87;98847.59;2104227;28;19928;-73
2022/07/21 01:23:33;;;;;;;;;;;;;;;24.70;43.66;98843.69;2105424;28;20003;-73
2022/07/21 01:24:34;;;;;;;;;;;;;;;24.67;43.63;98854.19;2104907;28;20178;-73
2022/07/21 01:25:35;;;;;;;;;;;;;;;24.65;43.41;98846.28;2100415;28;19924;-73
2022/07/21 01:26:42;;;;;;;;;;;;;;;24.63;43.46;98842.19;2102521;28;23221;-73
2022/07/21 01:27:44;;;;;;;;;;;;;;;24.62;43.17;98851.34;2107487;28;19927;-73
2022/07/21 01:28:45;;;;;;;;;;;;;;;24.59;43.65;98852.66;2105009;28;20447;-73
2022/07/21 01:29:47;;;;;;;;;;;;;;;24.56;43.43;98847.72;2107787;28;19927;-73
2022/07/21 01:30:48;;;;;;;;;;;;;;;24.49;43.16;98842.41;2105625;28;20384;-73
2022/07/21 01:31:49;;;;;;;;;;;;;;;24.51;43.14;98853.00;2108188;28;20968;-73
2022/07/21 01:32:51;;;;;;;;;;;;;;;24.50;43.02;98844.06;2107546;28;19934;-73
2022/07/21 01:33:51;;;;;;;;;;;;;;;24.49;42.90;98852.44;2106595;28;21420;-73
2022/07/21 01:34:53;;;;;;;;;;;;;;;24.50;42.75;98849.47;2106687;28;20033;-73
2022/07/21 01:35:54;;;;;;;;;;;;;;;24.47;42.95;98851.84;2102949;28;19932;-72
2022/07/21 01:36:57;;;;;;;;;;;;;;;24.43;43.66;98847.91;2102744;28;20120;-72
2022/07/21 01:37:57;;;;;;;;;;;;;;;24.47;43.73;98855.38;2103793;28;19946;-73
2022/07/21 01:41:37;;;;;;;;;;;;;;;24.47;43.86;98849.13;2107809;28;20373;-73
2022/07/21 01:42:38;;;;;;;;;;;;;;;24.47;43.93;98849.97;2105984;28;19928;-73
2022/07/21 01:43:40;;;;;;;;;;;;;;;24.46;43.67;98845.63;2106532;28;19928;-74
2022/07/21 01:44:40;;;;;;;;;;;;;;;24.46;43.62;98859.16;2093564;28;19939;-74
2022/07/21 01:45:42;;;;;;;;;;;;;;;24.44;43.07;98855.84;2101986;28;20029;-74
2022/07/21 01:46:43;;;;;;;;;;;;;;;24.49;42.94;98852.44;2103185;28;19928;-74
2022/07/21 01:47:45;;;;;;;;;;;;;;;24.43;43.20;98854.22;2102913;28;19934;-74
2022/07/21 01:48:45;;;;;;;;;;;;;;;24.36;43.33;98856.19;2103017;28;20431;-74
2022/07/21 01:49:47;;;;;;;;;;;;;;;24.37;43.31;98851.56;2104447;28;19959;-74
2022/07/21 01:50:47;;;;;;;;;;;;;;;24.38;43.41;98851.34;2099967;28;19935;-73
2022/07/21 01:51:49;;;;;;;;;;;;;;;24.44;43.59;98857.75;2103294;28;20122;-72
2022/07/21 01:52:51;;;;;;;;;;;;;;;24.48;43.73;98850.78;2099472;28;20495;-73
2022/07/21 01:53:53;;;;;;;;;;;;;;;24.49;43.45;98850.56;2103327;28;19927;-72
2022/07/21 01:54:54;;;;;;;;;;;;;;;24.47;43.43;98846.44;2105829;28;19981;-73
2022/07/21 01:55:55;;;;;;;;;;;;;;;24.40;43.60;98848.41;2105328;28;19988;-71
2022/07/21 01:56:56;;;;;;;;;;;;;;;24.35;43.70;98848.28;2103744;28;20401;-71
2022/07/21 01:57:58;;;;;;;;;;;;;;;24.40;44.06;98851.91;2105050;28;19932;-71
2022/07/21 01:58:58;;;;;;;;;;;;;;;24.43;43.54;98847.91;2104745;28;19970;-71
2022/07/21 02:00:00;;;;;;;;;;;;;;;24.43;43.25;98848.78;2103367;28;19950;-71
2022/07/21 02:01:00;;;;;;;;;;;;;;;24.42;43.12;98843.56;2105565;28;19980;-71
2022/07/21 02:02:02;;;;;;;;;;;;;;;24.40;43.52;98843.78;2099783;28;21851;-71
2022/07/21 02:03:02;;;;;;;;;;;;;;;24.44;43.57;98844.19;2105587;28;20071;-72
2022/07/21 02:04:05;;;;;;;;;;;;;;;24.41;43.74;98841.94;2107034;28;20443;-72
2022/07/21 02:05:06;;;;;;;;;;;;;;;24.40;43.50;98848.41;2106039;28;20078;-72
2022/07/21 02:06:08;;;;;;;;;;;;;;;24.39;43.38;98838.63;2107982;28;20018;-72
2022/07/21 02:07:09;;;;;;;;;;;;;;;24.30;43.67;98844.41;2103237;28;20197;-72
2022/07/21 02:08:12;;;;;;;;;;;;;;;24.39;43.60;98838.63;2102354;28;19997;-72
2022/07/21 02:09:12;;;;;;;;;;;;;;;24.37;43.02;98835.31;2105132;28;20581;-72
2022/07/21 02:10:14;;;;;;;;;;;;;;;24.37;43.05;98840.72;2100797;28;19928;-72
2022/07/21 02:11:15;;;;;;;;;;;;;;;24.35;43.51;98841.00;2107322;28;19923;-72
2022/07/21 02:12:16;;;;;;;;;;;;;;;24.28;43.89;98841.09;2108023;28;19927;-72
2022/07/21 02:13:17;;;;;;;;;;;;;;;24.23;44.04;98832.00;2101469;28;22224;-72
2022/07/21 02:14:19;;;;;;;;;;;;;;;24.30;43.76;98838.16;2101856;28;19934;-72
2022/07/21 02:15:19;;;;;;;;;;;;;;;24.34;43.68;98839.31;2104336;28;19932;-72
2022/07/21 02:16:21;;;;;;;;;;;;;;;24.30;43.65;98838.97;2101937;28;19959;-72
2022/07/21 02:17:24;;;;;;;;;;;;;;;24.37;43.23;98846.16;2105030;28;19930;-72
2022/07/21 02:18:26;;;;;;;;;;;;;;;24.35;43.25;98845.56;2105752;28;20607;-72
2022/07/21 02:19:26;;;;;;;;;;;;;;;24.32;43.01;98846.84;2107110;28;20417;-71
2022/07/21 02:20:28;;;;;;;;;;;;;;;24.28;43.72;98840.28;2103537;28;19934;-72
2022/07/21 02:21:28;;;;;;;;;;;;;;;24.29;43.61;98840.03;2105034;28;19927;-72
2022/07/21 02:22:30;;;;;;;;;;;;;;;24.35;43.70;98837.44;2099299;28;20164;-72
2022/07/21 02:23:32;;;;;;;;;;;;;;;24.36;43.64;98842.63;2101646;28;19923;-72
2022/07/21 02:24:34;;;;;;;;;;;;;;;24.34;43.63;98841.22;2098628;28;19924;-71
2022/07/21 02:25:35;;;;;;;;;;;;;;;24.25;43.88;98836.13;2102717;28;20448;-72
2022/07/21 02:26:36;;;;;;;;;;;;;;;24.27;43.53;98831.31;2106919;28;19927;-71
2022/07/21 02:27:37;;;;;;;;;;;;;;;24.29;43.18;98831.91;2106609;28;19923;-71
2022/07/21 02:28:39;;;;;;;;;;;;;;;24.26;43.07;98837.78;2105426;28;20389;-72
2022/07/21 02:29:39;;;;;;;;;;;;;;;24.25;43.19;98836.13;2104912;28;19924;-72
2022/07/21 02:30:41;;;;;;;;;;;;;;;24.24;43.36;98837.22;2103267;28;19924;-72
2022/07/21 02:31:42;;;;;;;;;;;;;;;24.23;43.81;98835.53;2105924;28;19930;-72
2022/07/21 02:32:43;;;;;;;;;;;;;;;24.27;43.69;98835.91;2101806;28;20488;-72
2022/07/21 02:33:44;;;;;;;;;;;;;;;24.29;43.59;98833.78;2100244;28;20387;-72
2022/07/21 02:34:45;;;;;;;;;;;;;;;24.27;43.42;98839.44;2099121;28;19932;-72
2022/07/21 02:35:46;;;;;;;;;;;;;;;24.23;43.34;98838.25;2102137;28;20376;-72
2022/07/21 02:36:47;;;;;;;;;;;;;;;24.22;43.56;98839.31;2105592;28;19928;-71
2022/07/21 02:37:48;;;;;;;;;;;;;;;24.25;43.26;98832.63;2101325;28;20226;-72
2022/07/21 02:38:51;;;;;;;;;;;;;;;24.22;43.18;98835.78;2104127;28;19963;-72
2022/07/21 02:39:52;;;;;;;;;;;;;;;24.22;43.02;98830.38;2105524;28;20024;-72
2022/07/21 02:40:53;;;;;;;;;;;;;;;24.17;42.70;98827.53;2105082;28;20308;-72
2022/07/21 02:41:54;;;;;;;;;;;;;;;24.12;43.06;98830.13;2107697;28;19955;-71
2022/07/21 02:42:55;;;;;;;;;;;;;;;24.14;43.01;98838.84;2101226;28;19950;-72
2022/07/21 02:43:56;;;;;;;;;;;;;;;24.11;42.83;98836.63;2101786;28;19928;-71
2022/07/21 02:44:57;;;;;;;;;;;;;;;24.05;43.28;98831.06;2103303;28;19936;-71
2022/07/21 02:45:58;;;;;;;;;;;;;;;24.07;43.46;98828.97;2104685;28;20062;-72
2022/07/21 02:47:00;;;;;;;;;;;;;;;24.06;43.93;98827.28;2105426;28;19927;-72
2022/07/21 02:48:01;;;;;;;;;;;;;;;24.12;43.80;98836.38;2104625;28;20397;-72
2022/07/21 02:49:03;;;;;;;;;;;;;;;24.15;43.41;98833.19;2104115;28;19928;-72
2022/07/21 02:50:04;;;;;;;;;;;;;;;24.18;43.41;98829.19;2105278;28;19934;-72
2022/07/21 02:51:05;;;;;;;;;;;;;;;24.19;43.40;98831.66;2102430;28;19923;-71
2022/07/21 02:52:06;;;;;;;;;;;;;;;24.16;43.39;98826.72;2104968;28;19939;-71
2022/07/21 02:53:08;;;;;;;;;;;;;;;24.01;43.69;98826.34;2103693;28;19947;-72
2022/07/21 02:54:11;;;;;;;;;;;;;;;24.03;43.60;98829.66;2089255;28;20034;-72
2022/07/21 02:55:12;;;;;;;;;;;;;;;24.07;43.54;98828.09;2094534;28;20373;-72
2022/07/21 02:56:14;;;;;;;;;;;;;;;24.13;43.41;98835.31;2093668;28;19978;-73
2022/07/21 02:57:14;;;;;;;;;;;;;;;24.12;43.83;98824.72;2105075;28;19927;-72
2022/07/21 02:58:17;;;;;;;;;;;;;;;24.17;43.60;98828.34;2105321;28;19967;-73
2022/07/21 02:59:21;;;;;;;;;;;;;;;24.14;43.35;98833.44;2104860;28;20297;-72
2022/07/21 03:00:22;;;;;;;;;;;;;;;24.03;43.68;98827.75;2104243;28;20690;-72
2022/07/21 03:01:23;;;;;;;;;;;;;;;24.10;43.94;98830.38;2104639;28;19924;-73
2022/07/21 03:02:24;;;;;;;;;;;;;;;24.07;43.76;98825.41;2103733;28;20379;-72
2022/07/21 03:03:26;;;;;;;;;;;;;;;24.06;43.56;98834.59;2105501;28;19931;-72
2022/07/21 03:04:28;;;;;;;;;;;;;;;24.07;43.46;98833.53;2105342;28;19932;-73
2022/07/21 03:05:28;;;;;;;;;;;;;;;24.06;43.77;98832.72;2104939;28;19928;-73
2022/07/21 03:06:30;;;;;;;;;;;;;;;24.11;43.95;98828.50;2107390;28;19954;-73
2022/07/21 03:07:31;;;;;;;;;;;;;;;24.05;44.22;98835.66;2107198;28;19927;-73
2022/07/21 03:08:33;;;;;;;;;;;;;;;24.06;43.93;98831.88;2100657;28;19947;-73
2022/07/21 03:09:35;;;;;;;;;;;;;;;24.02;43.86;98830.72;2102968;28;19924;-73
2022/07/21 03:10:36;;;;;;;;;;;;;;;24.09;43.71;98831.41;2105948;28;20010;-73
2022/07/21 03:11:37;;;;;;;;;;;;;;;24.10;43.64;98830.38;2105259;28;19928;-73
2022/07/21 03:12:39;;;;;;;;;;;;;;;24.10;43.50;98830.38;2104154;28;20437;-73
2022/07/21 03:13:40;;;;;;;;;;;;;;;24.05;43.38;98831.06;2103788;28;19924;-73
2022/07/21 03:14:41;;;;;;;;;;;;;;;24.06;43.76;98831.88;2102277;28;19939;-73
2022/07/21 03:15:43;;;;;;;;;;;;;;;23.96;43.85;98832.50;2101977;28;19927;-73
2022/07/21 03:16:43;;;;;;;;;;;;;;;24.07;44.01;98828.09;2102176;28;19932;-73
2022/07/21 03:17:45;;;;;;;;;;;;;;;24.06;43.82;98827.28;2105635;28;20075;-73
2022/07/21 03:18:46;;;;;;;;;;;;;;;24.09;43.89;98831.41;2103456;28;19923;-72
2022/07/21 03:19:47;;;;;;;;;;;;;;;24.09;43.64;98834.13;2105788;28;19928;-73
2022/07/21 03:20:49;;;;;;;;;;;;;;;24.05;43.62;98836.50;2102655;28;19946;-73
2022/07/21 03:21:50;;;;;;;;;;;;;;;24.00;43.47;98838.25;2106712;28;19938;-73
2022/07/21 03:22:51;;;;;;;;;;;;;;;24.01;43.57;98829.06;2102482;28;20392;-73
2022/07/21 03:23:52;;;;;;;;;;;;;;;23.92;43.64;98839.41;2102724;28;19928;-73
2022/07/21 03:24:55;;;;;;;;;;;;;;;23.99;43.89;98840.16;2098926;28;19938;-73
2022/07/21 03:25:56;;;;;;;;;;;;;;;24.04;43.84;98839.41;2103060;28;20403;-73
2022/07/21 03:26:57;;;;;;;;;;;;;;;24.01;44.21;98838.00;2102999;28;19934;-73
2022/07/21 03:27:59;;;;;;;;;;;;;;;24.04;43.90;98842.13;2102542;28;19971;-72
2022/07/21 03:28:59;;;;;;;;;;;;;;;24.02;43.92;98836.16;2104590;28;19927;-73
2022/07/21 03:30:01;;;;;;;;;;;;;;;24.06;43.76;98842.72;2105230;28;19934;-72
2022/07/21 03:31:02;;;;;;;;;;;;;;;24.00;43.83;98841.78;2104502;28;20403;-72
2022/07/21 03:32:03;;;;;;;;;;;;;;;23.90;44.15;98844.22;2103657;28;20400;-72
2022/07/21 03:33:05;;;;;;;;;;;;;;;23.91;44.18;98840.47;2103359;28;19927;-72
2022/07/21 03:34:06;;;;;;;;;;;;;;;23.93;43.97;98843.78;2102161;28;19939;-72
2022/07/21 03:35:08;;;;;;;;;;;;;;;23.95;43.76;98836.22;2104729;28;19930;-72
2022/07/21 03:36:10;;;;;;;;;;;;;;;23.98;44.19;98840.38;2101808;28;19931;-72
2022/07/21 03:37:11;;;;;;;;;;;;;;;23.96;44.36;98840.63;2103165;28;19932;-72
2022/07/21 03:38:12;;;;;;;;;;;;;;;23.99;43.89;98836.63;2106447;28;19981;-72
2022/07/21 03:39:13;;;;;;;;;;;;;;;23.97;44.03;98844.16;2102185;28;19990;-72
2022/07/21 03:40:16;;;;;;;;;;;;;;;23.84;44.19;98840.56;2102530;28;19966;-72
2022/07/21 03:41:17;;;;;;;;;;;;;;;23.90;43.99;98844.22;2105423;28;19941;-72
2022/07/21 03:42:19;;;;;;;;;;;;;;;23.88;44.20;98834.72;2104777;28;20304;-72
2022/07/21 03:43:20;;;;;;;;;;;;;;;23.87;43.89;98844.69;2104280;28;20151;-72
2022/07/21 03:44:21;;;;;;;;;;;;;;;23.85;43.52;98846.84;2108421;28;20448;-72
2022/07/21 03:45:24;;;;;;;;;;;;;;;23.81;43.70;98846.47;2102696;28;19928;-72
2022/07/21 03:46:24;;;;;;;;;;;;;;;23.87;44.10;98836.56;2101830;28;19931;-72
2022/07/21 03:47:26;;;;;;;;;;;;;;;23.86;44.33;98837.66;2101780;28;19967;-72
2022/07/21 03:48:28;;;;;;;;;;;;;;;23.78;44.47;98835.28;2105610;28;19939;-72
2022/07/21 03:49:28;;;;;;;;;;;;;;;23.85;43.98;98836.81;2105951;28;20435;-72
2022/07/21 03:50:30;;;;;;;;;;;;;;;23.90;43.83;98844.22;2104251;28;19954;-72
2022/07/21 03:51:31;;;;;;;;;;;;;;;23.91;43.79;98840.47;2108197;28;19947;-72
2022/07/21 03:52:32;;;;;;;;;;;;;;;23.89;43.57;98841.78;2105049;28;19959;-72
2022/07/21 03:53:33;;;;;;;;;;;;;;;23.86;43.42;98843.06;2105382;28;19943;-72
2022/07/21 03:54:35;;;;;;;;;;;;;;;23.93;43.37;98843.78;2104044;28;19927;-71
2022/07/21 03:55:38;;;;;;;;;;;;;;;23.84;44.12;98850.59;2100685;28;20185;-72
2022/07/21 03:56:38;;;;;;;;;;;;;;;23.84;44.22;98851.41;2103322;28;20360;-72
2022/07/21 03:57:40;;;;;;;;;;;;;;;23.85;44.15;98853.06;2106144;28;20179;-71
2022/07/21 03:58:41;;;;;;;;;;;;;;;23.86;44.08;98851.19;2106149;28;20315;-71
2022/07/21 03:59:42;;;;;;;;;;;;;;;23.89;44.00;98848.00;2105568;28;19924;-71
2022/07/21 04:00:44;;;;;;;;;;;;;;;23.88;43.68;98853.69;2105839;28;19924;-71
2022/07/21 04:01:45;;;;;;;;;;;;;;;23.92;43.68;98852.13;2105984;28;19928;-71
2022/07/21 04:02:47;;;;;;;;;;;;;;;23.82;43.54;98856.25;2104166;28;19935;-71
2022/07/21 04:03:48;;;;;;;;;;;;;;;23.80;43.78;98849.41;2105946;28;20298;-71
2022/07/21 04:04:49;;;;;;;;;;;;;;;23.84;43.81;98858.72;2105835;28;20317;-71
2022/07/21 04:05:50;;;;;;;;;;;;;;;23.80;43.68;98858.38;2107158;28;19932;-71
2022/07/21 04:06:51;;;;;;;;;;;;;;;23.84;43.88;98856.00;2104394;28;19923;-72
2022/07/21 04:07:53;;;;;;;;;;;;;;;23.81;44.20;98854.59;2102278;28;19963;-73
2022/07/21 04:08:53;;;;;;;;;;;;;;;23.89;44.05;98855.31;2106541;28;19924;-73
2022/07/21 04:09:55;;;;;;;;;;;;;;;23.86;44.14;98860.13;2108732;28;19931;-73
2022/07/21 04:10:59;;;;;;;;;;;;;;;23.92;44.34;98863.78;2104892;28;19927;-72
2022/07/21 04:11:59;;;;;;;;;;;;;;;23.89;44.26;98864.25;2102386;28;20030;-73
2022/07/21 04:13:02;;;;;;;;;;;;;;;23.82;44.17;98861.66;2101916;28;19927;-73
2022/07/21 04:14:02;;;;;;;;;;;;;;;23.83;44.29;98863.31;2101106;28;19928;-72
2022/07/21 04:15:05;;;;;;;;;;;;;;;23.86;44.27;98868.25;2105707;28;20397;-72
2022/07/21 04:16:06;;;;;;;;;;;;;;;23.85;44.20;98871.22;2104655;28;20409;-71
2022/07/21 04:17:07;;;;;;;;;;;;;;;23.86;43.86;98865.56;2106578;28;19931;-71
2022/07/21 04:18:09;;;;;;;;;;;;;;;23.87;43.91;98866.38;2103845;28;19935;-71
2022/07/21 04:19:09;;;;;;;;;;;;;;;23.84;43.83;98858.72;2103873;28;20353;-71
2022/07/21 04:20:12;;;;;;;;;;;;;;;23.74;43.96;98862.00;2105955;28;19971;-72
2022/07/21 04:21:12;;;;;;;;;;;;;;;23.80;44.11;98865.66;2106197;28;20019;-71
2022/07/21 04:22:14;;;;;;;;;;;;;;;23.78;43.79;98863.19;2092173;28;20456;-71
2022/07/21 04:23:14;;;;;;;;;;;;;;;23.73;43.81;98865.75;2099875;28;19928;-72
2022/07/21 04:24:16;;;;;;;;;;;;;;;23.80;43.76;98871.91;2099355;28;20068;-71
2022/07/21 04:25:17;;;;;;;;;;;;;;;23.76;43.68;98862.56;2104876;28;19934;-72
2022/07/21 04:26:20;;;;;;;;;;;;;;;23.79;43.53;98862.13;2105670;28;19934;-72
2022/07/21 04:27:21;;;;;;;;;;;;;;;23.72;43.55;98863.28;2104094;28;19938;-72
2022/07/21 04:28:22;;;;;;;;;;;;;;;23.64;44.10;98861.69;2100994;28;19923;-72
2022/07/21 04:29:23;;;;;;;;;;;;;;;23.69;43.62;98863.72;2107616;28;20675;-71
2022/07/21 04:30:24;;;;;;;;;;;;;;;23.69;43.70;98861.00;2101381;28;19932;-72
2022/07/21 04:31:25;;;;;;;;;;;;;;;23.69;43.48;98858.31;2106546;28;19924;-72
2022/07/21 04:32:27;;;;;;;;;;;;;;;23.66;43.50;98858.78;2100469;28;19975;-72
2022/07/21 04:33:27;;;;;;;;;;;;;;;23.73;43.51;98864.94;2106718;28;19934;-72
2022/07/21 04:34:29;;;;;;;;;;;;;;;23.74;43.50;98863.88;2106392;28;20010;-72
2022/07/21 04:35:31;;;;;;;;;;;;;;;23.64;43.59;98859.81;2100790;28;19931;-71
2022/07/21 04:36:31;;;;;;;;;;;;;;;23.62;43.67;98864.66;2105320;28;20051;-71
2022/07/21 04:37:33;;;;;;;;;;;;;;;23.61;43.89;98862.16;2101617;28;20514;-71
2022/07/21 04:38:33;;;;;;;;;;;;;;;23.62;43.75;98861.09;2099320;28;20166;-71
2022/07/21 04:39:35;;;;;;;;;;;;;;;23.59;43.78;98858.84;2104853;28;20388;-72
2022/07/21 04:40:36;;;;;;;;;;;;;;;23.57;43.76;98856.38;2105920;28;19931;-71
2022/07/21 04:41:39;;;;;;;;;;;;;;;23.59;43.52;98861.56;2105835;28;20418;-71
2022/07/21 04:42:40;;;;;;;;;;;;;;;23.55;43.74;98863.09;2104704;28;20534;-72
2022/07/21 04:43:42;;;;;;;;;;;;;;;23.54;43.78;98864.97;2107029;28;19963;-71
2022/07/21 04:44:45;;;;;;;;;;;;;;;23.50;44.00;98861.06;2107564;28;20014;-71
2022/07/21 04:45:47;;;;;;;;;;;;;;;23.58;43.61;98863.44;2104424;28;19928;-71
2022/07/21 04:46:47;;;;;;;;;;;;;;;23.60;43.55;98868.66;2104672;28;19931;-71
2022/07/21 04:47:50;;;;;;;;;;;;;;;23.58;43.52;98859.91;2103078;28;20305;-72
2022/07/21 04:48:51;;;;;;;;;;;;;;;23.58;43.47;98865.34;2103542;28;19924;-71
2022/07/21 04:49:52;;;;;;;;;;;;;;;23.60;43.75;98871.34;2103590;28;19924;-71
2022/07/21 04:50:54;;;;;;;;;;;;;;;23.57;43.56;98864.50;2104934;28;19935;-71
2022/07/21 04:51:56;;;;;;;;;;;;;;;23.57;43.55;98872.63;2101388;28;20217;-71
2022/07/21 04:52:56;;;;;;;;;;;;;;;23.55;43.64;98868.50;2105131;28;19924;-71
2022/07/21 04:53:58;;;;;;;;;;;;;;;23.54;43.69;98877.66;2099488;28;20015;-73
2022/07/21 04:54:58;;;;;;;;;;;;;;;23.58;43.68;98874.28;2104983;28;19940;-71
2022/07/21 04:56:00;;;;;;;;;;;;;;;23.55;43.45;98866.63;2105740;28;20038;-71
2022/07/21 04:57:03;;;;;;;;;;;;;;;23.59;43.40;98866.97;2105542;28;21049;-72
2022/07/21 04:58:05;;;;;;;;;;;;;;;23.49;42.86;98864.03;2101442;28;20290;-71
2022/07/21 04:59:06;;;;;;;;;;;;;;;23.33;42.96;98870.88;2102334;28;19988;-72
2022/07/21 05:00:09;;;;;;;;;;;;;;;23.31;42.66;98875.69;2102862;28;19977;-71
2022/07/21 05:01:09;;;;;;;;;;;;;;;23.27;42.69;98874.53;2104349;28;19971;-72
2022/07/21 05:02:11;;;;;;;;;;;;;;;23.30;42.03;98872.16;2098253;28;20266;-72
2022/07/21 05:03:13;;;;;;;;;;;;;;;23.27;41.61;98866.41;2104192;28;20085;-72
2022/07/21 05:04:14;;;;;;;;;;;;;;;23.22;41.24;98868.97;2105919;28;19924;-73
2022/07/21 05:05:15;;;;;;;;;;;;;;;23.19;41.15;98872.94;2103545;28;20285;-72
2022/07/21 05:06:16;;;;;;;;;;;;;;;23.10;41.45;98874.31;2099301;28;19973;-72
2022/07/21 05:07:17;;;;;;;;;;;;;;;23.02;41.25;98872.75;2104948;28;20082;-72
2022/07/21 05:08:19;;;;;;;;;;;;;;;23.02;41.29;98874.63;2106868;28;20388;-72
2022/07/21 05:09:19;;;;;;;;;;;;;;;23.00;40.76;98869.44;2100552;28;19931;-72
2022/07/21 05:10:21;;;;;;;;;;;;;;;22.94;40.82;98873.81;2101240;28;19932;-71
2022/07/21 05:11:21;;;;;;;;;;;;;;;22.93;40.56;98874.06;2104058;28;20560;-72
2022/07/21 05:12:24;;;;;;;;;;;;;;;22.87;40.38;98874.94;2105964;28;20226;-71
2022/07/21 05:13:26;;;;;;;;;;;;;;;22.91;40.29;98878.88;2107571;28;19931;-72
2022/07/21 05:14:27;;;;;;;;;;;;;;;22.78;40.32;98879.84;2106060;28;20473;-72
2022/07/21 05:15:28;;;;;;;;;;;;;;;22.77;40.43;98877.38;2108224;28;20023;-72
2022/07/21 05:16:29;;;;;;;;;;;;;;;22.83;40.37;98876.47;2104608;28;19927;-72
2022/07/21 05:17:30;;;;;;;;;;;;;;;22.87;40.02;98877.66;2103712;28;19934;-72
2022/07/21 05:18:32;;;;;;;;;;;;;;;22.84;39.89;98875.41;2101743;28;20419;-71
2022/07/21 05:19:33;;;;;;;;;;;;;;;22.79;39.82;98883.38;2101742;28;19924;-72
2022/07/21 05:20:34;;;;;;;;;;;;;;;22.80;39.53;98880.44;2104171;28;19924;-71
2022/07/21 05:21:35;;;;;;;;;;;;;;;22.77;39.38;98878.19;2100290;28;19951;-72
2022/07/21 05:22:36;;;;;;;;;;;;;;;22.68;39.44;98879.56;2098978;28;20399;-72